Bookmark and Share
Track history (hours):
 

Mct Breithorn

Last reported at 2014-Apr-21 19:30 UTC. Time now 2014-Apr-24 11:21 UTC.
Position N 50°09' W 002°12'.

Length 165 m; draft 9.5 m.

Type: Ship (hazmat cat D). MMSI: 269848000.

NotesDate/timePositionNaut miles runAvg speedWind from/ knotsBaromVisibWave heightAir tempDewpointWater temp
2014-Apr-21 19:30N 50°09' W 002°12'2015.1
2014-Apr-21 18:09N 50°14' W 001°41'915.1
2014-Apr-21 17:33N 50°17' W 001°28'1514.8
2014-Apr-21 16:33N 50°21' W 001°05'1313.4
2014-Apr-21 15:33N 50°24' W 000°45'1211.8
2014-Apr-21 14:33N 50°28' W 000°28'1111.3
2014-Apr-21 13:33N 50°30' W 000°10'1110.9
2014-Apr-21 12:33N 50°33' E 000°06'1111.1
2014-Apr-21 11:33N 50°37' E 000°23'1212.1
2014-Apr-21 10:33N 50°42' E 000°40'1413.7
2014-Apr-21 09:34N 50°49' E 000°59'1413.8
2014-Apr-21 08:33N 50°58' E 001°15'1414.1
2014-Apr-21 07:34N 51°07' E 001°32'1312.5
2014-Apr-21 06:33N 51°16' E 001°47'1110.9
2014-Apr-21 05:33N 51°25' E 001°55'1111.0
2014-Apr-21 04:33N 51°34' E 002°06'1111.5
2014-Apr-21 03:33N 51°42' E 002°19'1212.4
2014-Apr-21 02:33N 51°52' E 002°32'6312.7
2014-Apr-20 21:33N 52°31' E 003°53'1212.2
2014-Apr-20 20:33N 52°31' E 004°13'1211.8
2014-Apr-20 19:34N 52°28' E 004°32'3 3.4
2014-Apr-20 18:33N 52°28' E 004°37'6 5.7
2014-Apr-20 17:34N 52°26' E 004°46'1 0.8
2014-Apr-20 16:31N 52°25' E 004°46'0 0.0
2014-Apr-20 15:31N 52°25' E 004°46'0 0.0
2014-Apr-20 14:31N 52°25' E 004°46'0 0.0
2014-Apr-20 13:31N 52°25' E 004°46'0 0.0
2014-Apr-20 12:26N 52°25' E 004°46'0 0.0
2014-Apr-20 11:29N 52°25' E 004°46'0 0.0
2014-Apr-20 10:32N 52°25' E 004°46'0 0.0
2014-Apr-20 09:32N 52°25' E 004°46'0 0.0
2014-Apr-20 08:32N 52°25' E 004°46'0 0.0
2014-Apr-20 07:32N 52°25' E 004°46'0 0.0
2014-Apr-20 06:32N 52°25' E 004°46'0 0.0
2014-Apr-20 05:32N 52°25' E 004°46'0 0.0
2014-Apr-20 04:29N 52°25' E 004°46'0 0.0
2014-Apr-20 03:32N 52°25' E 004°46'0 0.0
2014-Apr-20 02:32N 52°25' E 004°46'0 0.0
2014-Apr-20 01:32N 52°25' E 004°46'0 0.0
2014-Apr-20 00:32N 52°25' E 004°46'0 0.0
2014-Apr-19 23:32N 52°25' E 004°46'0 0.0
2014-Apr-19 22:32N 52°25' E 004°46'0 0.0
2014-Apr-19 21:32N 52°25' E 004°46'0 0.0
2014-Apr-19 20:32N 52°25' E 004°46'0 0.0
2014-Apr-19 19:32N 52°25' E 004°46'0 0.0
2014-Apr-19 18:32N 52°25' E 004°46'0 0.0
2014-Apr-19 17:29N 52°25' E 004°46'0 0.0
2014-Apr-19 16:32N 52°25' E 004°46'0 0.0
2014-Apr-19 15:32N 52°25' E 004°46'0 0.0
2014-Apr-19 14:32N 52°25' E 004°46'0 0.0
2014-Apr-19 13:32N 52°25' E 004°46'0 0.0
2014-Apr-19 12:32N 52°25' E 004°46'0 0.0
2014-Apr-19 11:32N 52°25' E 004°46'0 0.0
2014-Apr-19 10:32N 52°25' E 004°46'0 0.0
2014-Apr-19 09:32N 52°25' E 004°46'0 0.0
2014-Apr-19 08:32N 52°25' E 004°46'0 0.0
2014-Apr-19 07:32N 52°25' E 004°46'0 0.0
2014-Apr-19 06:32N 52°25' E 004°46'0 0.0
2014-Apr-19 05:32N 52°25' E 004°46'3 3.0
2014-Apr-19 04:33N 52°26' E 004°42'5 4.5
2014-Apr-19 03:34N 52°28' E 004°35'9 9.4
2014-Apr-19 02:33N 52°28' E 004°20'1111.4
2014-Apr-19 01:33N 52°28' E 004°01'10 9.6
2014-Apr-19 00:33N 52°20' E 003°52'1110.9
2014-Apr-18 23:33N 52°09' E 003°54'8 7.6
2014-Apr-18 22:33N 52°02' E 003°57'10 0.3
2014-Apr-17 10:33N 51°56' E 004°11'9 9.1
2014-Apr-17 09:33N 51°60' E 003°57'1312.7
2014-Apr-17 08:33N 51°57' E 003°37'7 5.1
2014-Apr-17 07:09N 51°53' E 003°27'0 0.0
2014-Apr-17 06:21N 51°53' E 003°27'0 0.1
2014-Apr-17 05:32N 51°53' E 003°27'1010.3
2014-Apr-17 04:32N 51°52' E 003°11'1615.9
2014-Apr-17 03:30N 51°48' E 002°45'1616.8
2014-Apr-17 02:33N 51°37' E 002°26'1817.5
2014-Apr-17 01:31N 51°22' E 002°11'1717.1
2014-Apr-17 00:33N 51°10' E 001°53'1818.3
2014-Apr-16 23:33N 50°56' E 001°33'1716.8
2014-Apr-16 22:33N 50°41' E 001°21'1616.4
2014-Apr-16 21:34N 50°30' E 001°02'1616.4
2014-Apr-16 20:33N 50°24' E 000°38'1615.7
2014-Apr-16 19:32N 50°19' E 000°14'1515.1
2014-Apr-16 18:33N 50°17' W 000°09'1514.4
2014-Apr-16 17:28N 50°13' W 000°32'1413.2
2014-Apr-16 16:26N 50°10' W 000°53'1112.1
2014-Apr-16 15:33N 50°07' W 001°09'1111.4
2014-Apr-16 14:33N 50°04' W 001°26'1211.3
2014-Apr-16 13:29N 50°00' W 001°44'2913.3
2014-Apr-16 11:19N 49°52' W 002°27'1215.3
2014-Apr-16 10:30N 49°49' W 002°46'  

Dump ship's entire track history

sailing weather and tide predictions

Mct Breithorn — HBHC — position and weather